sensor_id;sensor_type;location;lat;lon;timestamp;pressure;altitude;pressure_sealevel;temperature;humidity
40954;BME280;26686;50.130;8.710;2023-04-07T00:00:02;100166.72;;;9.46;78.49
40954;BME280;26686;50.130;8.710;2023-04-07T00:05:06;100174.44;;;9.49;78.40
40954;BME280;26686;50.130;8.710;2023-04-07T00:10:08;100163.81;;;9.49;78.31
40954;BME280;26686;50.130;8.710;2023-04-07T00:15:09;100160.44;;;9.47;78.45
40954;BME280;26686;50.130;8.710;2023-04-07T00:20:11;100138.34;;;9.35;78.96
40954;BME280;26686;50.130;8.710;2023-04-07T00:25:13;100151.00;;;9.43;79.26
40954;BME280;26686;50.130;8.710;2023-04-07T00:30:14;100148.34;;;9.43;79.20
40954;BME280;26686;50.130;8.710;2023-04-07T00:35:16;100131.06;;;9.37;79.72
40954;BME280;26686;50.130;8.710;2023-04-07T00:40:18;100140.16;;;9.46;78.94
40954;BME280;26686;50.130;8.710;2023-04-07T00:45:19;100133.50;;;9.41;78.41
40954;BME280;26686;50.130;8.710;2023-04-07T00:50:20;100117.69;;;9.39;79.47
40954;BME280;26686;50.130;8.710;2023-04-07T00:55:23;100113.31;;;9.38;79.40
40954;BME280;26686;50.130;8.710;2023-04-07T01:00:26;100119.97;;;9.44;78.52
40954;BME280;26686;50.130;8.710;2023-04-07T01:05:39;100103.31;;;9.42;80.09
40954;BME280;26686;50.130;8.710;2023-04-07T01:10:56;100098.59;;;9.34;79.77
40954;BME280;26686;50.130;8.710;2023-04-07T01:16:04;100098.25;;;9.38;78.75
40954;BME280;26686;50.130;8.710;2023-04-07T01:21:10;100086.75;;;9.38;78.85
40954;BME280;26686;50.130;8.710;2023-04-07T01:26:30;100090.50;;;9.35;79.43
40954;BME280;26686;50.130;8.710;2023-04-07T01:31:33;100084.09;;;9.38;79.56
40954;BME280;26686;50.130;8.710;2023-04-07T01:36:35;100076.59;;;9.32;79.93
40954;BME280;26686;50.130;8.710;2023-04-07T01:41:37;100075.41;;;9.36;79.70
40954;BME280;26686;50.130;8.710;2023-04-07T01:46:40;100067.56;;;9.34;79.75
40954;BME280;26686;50.130;8.710;2023-04-07T01:51:41;100066.97;;;9.31;79.27
40954;BME280;26686;50.130;8.710;2023-04-07T01:56:44;100060.06;;;9.28;79.92
40954;BME280;26686;50.130;8.710;2023-04-07T02:01:46;100055.72;;;9.27;80.69
40954;BME280;26686;50.130;8.710;2023-04-07T02:06:52;100061.66;;;9.31;80.39
40954;BME280;26686;50.130;8.710;2023-04-07T02:11:57;100060.78;;;9.30;81.06
40954;BME280;26686;50.130;8.710;2023-04-07T02:17:00;100052.47;;;9.24;80.96
40954;BME280;26686;50.130;8.710;2023-04-07T02:22:03;100048.81;;;9.25;81.06
40954;BME280;26686;50.130;8.710;2023-04-07T02:27:05;100052.94;;;9.29;81.60
40954;BME280;26686;50.130;8.710;2023-04-07T02:32:07;100034.59;;;9.14;82.33
40954;BME280;26686;50.130;8.710;2023-04-07T02:37:08;100039.06;;;9.25;80.89
40954;BME280;26686;50.130;8.710;2023-04-07T02:42:10;100040.03;;;9.24;81.80
40954;BME280;26686;50.130;8.710;2023-04-07T02:47:11;100033.88;;;9.24;81.58
40954;BME280;26686;50.130;8.710;2023-04-07T02:52:12;100037.63;;;9.21;82.42
40954;BME280;26686;50.130;8.710;2023-04-07T02:57:14;100046.91;;;9.27;81.73
40954;BME280;26686;50.130;8.710;2023-04-07T03:02:15;100041.59;;;9.27;82.32
40954;BME280;26686;50.130;8.710;2023-04-07T03:07:17;100035.34;;;9.28;82.15
40954;BME280;26686;50.130;8.710;2023-04-07T03:12:19;100025.03;;;9.23;82.99
40954;BME280;26686;50.130;8.710;2023-04-07T03:17:20;100025.03;;;9.23;83.26
40954;BME280;26686;50.130;8.710;2023-04-07T03:22:22;100028.31;;;9.27;82.80
40954;BME280;26686;50.130;8.710;2023-04-07T03:27:23;100024.56;;;9.18;83.13
40954;BME280;26686;50.130;8.710;2023-04-07T03:32:24;100014.78;;;9.18;83.01
40954;BME280;26686;50.130;8.710;2023-04-07T03:37:26;100014.78;;;9.18;83.02
40954;BME280;26686;50.130;8.710;2023-04-07T03:42:27;100015.91;;;9.16;82.81
40954;BME280;26686;50.130;8.710;2023-04-07T03:47:29;100009.97;;;9.12;83.42
40954;BME280;26686;50.130;8.710;2023-04-07T03:52:30;100008.88;;;9.15;83.49
40954;BME280;26686;50.130;8.710;2023-04-07T03:57:32;100016.13;;;9.13;83.40
40954;BME280;26686;50.130;8.710;2023-04-07T04:02:33;100019.75;;;9.12;84.08
40954;BME280;26686;50.130;8.710;2023-04-07T04:07:35;100010.19;;;9.09;84.01
40954;BME280;26686;50.130;8.710;2023-04-07T04:12:36;99997.88;;;8.85;84.67
40954;BME280;26686;50.130;8.710;2023-04-07T04:17:38;100010.44;;;9.06;84.55
40954;BME280;26686;50.130;8.710;2023-04-07T04:22:39;100010.69;;;9.03;84.30
40954;BME280;26686;50.130;8.710;2023-04-07T04:27:40;100014.56;;;9.10;83.87
40954;BME280;26686;50.130;8.710;2023-04-07T04:32:42;100011.06;;;9.10;83.64
40954;BME280;26686;50.130;8.710;2023-04-07T04:37:43;100015.50;;;9.09;84.15
40954;BME280;26686;50.130;8.710;2023-04-07T04:42:45;100021.31;;;9.14;83.90
40954;BME280;26686;50.130;8.710;2023-04-07T04:47:46;100007.53;;;9.09;83.13
40954;BME280;26686;50.130;8.710;2023-04-07T04:52:48;100015.75;;;9.06;83.18
40954;BME280;26686;50.130;8.710;2023-04-07T04:57:49;100021.56;;;9.11;82.87
40954;BME280;26686;50.130;8.710;2023-04-07T05:02:51;100021.06;;;9.06;84.39
40954;BME280;26686;50.130;8.710;2023-04-07T05:07:52;100027.31;;;9.05;84.60
40954;BME280;26686;50.130;8.710;2023-04-07T05:12:54;100032.75;;;9.03;84.25
40954;BME280;26686;50.130;8.710;2023-04-07T05:17:56;100032.88;;;9.02;84.63
40954;BME280;26686;50.130;8.710;2023-04-07T05:22:58;100024.06;;;9.01;84.47
40954;BME280;26686;50.130;8.710;2023-04-07T05:27:59;100021.53;;;9.00;84.70
40954;BME280;26686;50.130;8.710;2023-04-07T05:33:00;100026.63;;;9.03;84.65
40954;BME280;26686;50.130;8.710;2023-04-07T05:38:02;100009.22;;;8.99;84.96
40954;BME280;26686;50.130;8.710;2023-04-07T05:43:03;100020.22;;;9.06;84.52
40954;BME280;26686;50.130;8.710;2023-04-07T05:48:05;100019.59;;;9.02;84.16
40954;BME280;26686;50.130;8.710;2023-04-07T05:53:06;100027.56;;;9.02;84.67
40954;BME280;26686;50.130;8.710;2023-04-07T05:58:08;100022.13;;;9.03;84.58
40954;BME280;26686;50.130;8.710;2023-04-07T06:03:09;100022.25;;;9.02;84.14
40954;BME280;26686;50.130;8.710;2023-04-07T06:08:11;100011.16;;;8.97;84.02
40954;BME280;26686;50.130;8.710;2023-04-07T06:13:12;100024.78;;;9.03;83.84
40954;BME280;26686;50.130;8.710;2023-04-07T06:18:14;100019.72;;;9.00;83.69
40954;BME280;26686;50.130;8.710;2023-04-07T06:23:15;100024.06;;;9.01;84.04
40954;BME280;26686;50.130;8.710;2023-04-07T06:28:17;100030.22;;;9.02;84.54
40954;BME280;26686;50.130;8.710;2023-04-07T06:33:18;100024.06;;;9.01;84.46
40954;BME280;26686;50.130;8.710;2023-04-07T06:38:24;100028.31;;;9.04;84.52
40954;BME280;26686;50.130;8.710;2023-04-07T06:43:25;100021.44;;;9.01;84.79
40954;BME280;26686;50.130;8.710;2023-04-07T06:48:27;100031.69;;;9.06;84.95
40954;BME280;26686;50.130;8.710;2023-04-07T06:53:28;100029.03;;;9.06;84.95
40954;BME280;26686;50.130;8.710;2023-04-07T06:58:30;100035.06;;;9.08;84.66
40954;BME280;26686;50.130;8.710;2023-04-07T07:03:32;100047.63;;;9.06;85.27
40954;BME280;26686;50.130;8.710;2023-04-07T07:08:33;100040.47;;;9.07;85.74
40954;BME280;26686;50.130;8.710;2023-04-07T07:13:36;100034.34;;;9.06;86.07
40954;BME280;26686;50.130;8.710;2023-04-07T07:18:37;100041.72;;;9.14;85.55
40954;BME280;26686;50.130;8.710;2023-04-07T07:23:38;100039.91;;;9.14;85.89
40954;BME280;26686;50.130;8.710;2023-04-07T07:28:40;100045.94;;;9.16;85.67
40954;BME280;26686;50.130;8.710;2023-04-07T07:33:42;100041.59;;;9.27;85.82
40954;BME280;26686;50.130;8.710;2023-04-07T07:38:49;100047.88;;;9.26;85.05
40954;BME280;26686;50.130;8.710;2023-04-07T07:43:50;100060.56;;;9.33;84.75
40954;BME280;26686;50.130;8.710;2023-04-07T07:48:52;100059.72;;;9.33;84.88
40954;BME280;26686;50.130;8.710;2023-04-07T07:53:53;100056.34;;;9.31;85.28
40954;BME280;26686;50.130;8.710;2023-04-07T07:58:55;100055.75;;;9.38;84.86
40954;BME280;26686;50.130;8.710;2023-04-07T08:03:58;100063.47;;;9.42;85.01
40954;BME280;26686;50.130;8.710;2023-04-07T08:09:00;100076.16;;;9.49;85.64
40954;BME280;26686;50.130;8.710;2023-04-07T08:14:01;100070.00;;;9.49;85.08
40954;BME280;26686;50.130;8.710;2023-04-07T08:19:02;100078.09;;;9.47;84.71
40954;BME280;26686;50.130;8.710;2023-04-07T08:24:04;100081.81;;;9.45;84.74
40954;BME280;26686;50.130;8.710;2023-04-07T08:29:06;100059.97;;;9.30;84.62
40954;BME280;26686;50.130;8.710;2023-04-07T08:34:07;100087.97;;;9.57;85.77
40954;BME280;26686;50.130;8.710;2023-04-07T08:39:08;100089.41;;;9.61;85.54
40954;BME280;26686;50.130;8.710;2023-04-07T08:44:10;100090.63;;;9.68;85.25
40954;BME280;26686;50.130;8.710;2023-04-07T08:49:11;100091.50;;;9.68;84.71
40954;BME280;26686;50.130;8.710;2023-04-07T08:54:17;100096.31;;;9.75;84.46
40954;BME280;26686;50.130;8.710;2023-04-07T08:59:22;100094.25;;;9.78;85.19
40954;BME280;26686;50.130;8.710;2023-04-07T09:04:28;100101.00;;;9.82;84.88
40954;BME280;26686;50.130;8.710;2023-04-07T09:09:30;100097.41;;;9.83;85.61
40954;BME280;26686;50.130;8.710;2023-04-07T09:14:31;100105.72;;;9.90;85.03
40954;BME280;26686;50.130;8.710;2023-04-07T09:19:33;100100.41;;;9.90;84.68
40954;BME280;26686;50.130;8.710;2023-04-07T09:24:34;100108.50;;;9.88;84.67
40954;BME280;26686;50.130;8.710;2023-04-07T09:29:35;100108.72;;;9.97;84.37
40954;BME280;26686;50.130;8.710;2023-04-07T09:34:40;100102.19;;;10.01;85.35
40954;BME280;26686;50.130;8.710;2023-04-07T09:39:50;100109.16;;;10.13;85.25
40954;BME280;26686;50.130;8.710;2023-04-07T09:44:52;100111.56;;;10.16;84.26
40954;BME280;26686;50.130;8.710;2023-04-07T09:49:54;100100.97;;;10.05;84.80
40954;BME280;26686;50.130;8.710;2023-04-07T09:54:56;100112.44;;;10.17;84.48
40954;BME280;26686;50.130;8.710;2023-04-07T09:59:58;100111.69;;;10.15;84.12
40954;BME280;26686;50.130;8.710;2023-04-07T10:04:59;100113.41;;;10.16;84.33
40954;BME280;26686;50.130;8.710;2023-04-07T10:10:04;100117.75;;;10.17;84.46
40954;BME280;26686;50.130;8.710;2023-04-07T10:15:11;100110.88;;;10.14;85.18
40954;BME280;26686;50.130;8.710;2023-04-07T10:20:15;100115.22;;;10.15;85.80
40954;BME280;26686;50.130;8.710;2023-04-07T10:25:20;100112.06;;;10.10;86.02
40954;BME280;26686;50.130;8.710;2023-04-07T10:30:26;100123.66;;;10.20;85.86
40954;BME280;26686;50.130;8.710;2023-04-07T10:36:03;100129.84;;;10.21;87.00
40954;BME280;26686;50.130;8.710;2023-04-07T10:41:34;100127.66;;;10.26;88.15
40954;BME280;26686;50.130;8.710;2023-04-07T10:57:13;100145.41;;;10.48;87.99
40954;BME280;26686;50.130;8.710;2023-04-07T11:07:45;100154.81;;;10.52;86.91
40954;BME280;26686;50.130;8.710;2023-04-07T11:12:58;100151.69;;;10.47;87.31
40954;BME280;26686;50.130;8.710;2023-04-07T11:23:10;100150.22;;;10.54;87.32
40954;BME280;26686;50.130;8.710;2023-04-07T11:28:12;100163.03;;;10.49;85.36
40954;BME280;26686;50.130;8.710;2023-04-07T11:33:19;100159.22;;;10.42;86.58
40954;BME280;26686;50.130;8.710;2023-04-07T11:38:22;100153.13;;;10.51;86.62
40954;BME280;26686;50.130;8.710;2023-04-07T11:43:25;100162.53;;;10.67;86.62
40954;BME280;26686;50.130;8.710;2023-04-07T11:48:28;100158.03;;;10.67;86.59
40954;BME280;26686;50.130;8.710;2023-04-07T11:53:35;100167.59;;;10.70;86.12
40954;BME280;26686;50.130;8.710;2023-04-07T11:58:46;100174.50;;;10.61;87.18
40954;BME280;26686;50.130;8.710;2023-04-07T12:03:59;100178.50;;;10.67;86.94
40954;BME280;26686;50.130;8.710;2023-04-07T12:09:03;100180.44;;;10.65;85.69
40954;BME280;26686;50.130;8.710;2023-04-07T12:14:05;100174.50;;;10.72;84.81
40954;BME280;26686;50.130;8.710;2023-04-07T12:19:09;100181.38;;;10.75;84.52
40954;BME280;26686;50.130;8.710;2023-04-07T12:24:10;100182.22;;;10.75;84.90
40954;BME280;26686;50.130;8.710;2023-04-07T12:29:12;100194.38;;;10.89;84.76
40954;BME280;26686;50.130;8.710;2023-04-07T12:34:13;100186.88;;;10.94;84.71
40954;BME280;26686;50.130;8.710;2023-04-07T12:39:15;100189.94;;;11.11;84.98
40954;BME280;26686;50.130;8.710;2023-04-07T12:44:17;100193.59;;;11.31;83.46
40954;BME280;26686;50.130;8.710;2023-04-07T12:49:18;100191.19;;;11.49;80.91
40954;BME280;26686;50.130;8.710;2023-04-07T12:54:20;100199.97;;;11.61;81.34
40954;BME280;26686;50.130;8.710;2023-04-07T12:59:21;100198.16;;;11.92;79.20
40954;BME280;26686;50.130;8.710;2023-04-07T13:04:24;100200.19;;;12.10;78.41
40954;BME280;26686;50.130;8.710;2023-04-07T13:09:27;100200.66;;;12.15;78.01
40954;BME280;26686;50.130;8.710;2023-04-07T13:14:28;100199.78;;;12.55;76.47
40954;BME280;26686;50.130;8.710;2023-04-07T13:19:30;100198.69;;;12.77;74.02
40954;BME280;26686;50.130;8.710;2023-04-07T13:24:32;100195.25;;;12.46;75.29
40954;BME280;26686;50.130;8.710;2023-04-07T13:29:33;100194.28;;;12.37;76.71
40954;BME280;26686;50.130;8.710;2023-04-07T13:34:35;100196.72;;;12.60;76.67
40954;BME280;26686;50.130;8.710;2023-04-07T13:39:37;100193.06;;;12.70;75.23
40954;BME280;26686;50.130;8.710;2023-04-07T13:44:39;100199.41;;;12.89;74.58
40954;BME280;26686;50.130;8.710;2023-04-07T13:49:41;100200.94;;;13.01;73.61
40954;BME280;26686;50.130;8.710;2023-04-07T13:54:42;100198.69;;;13.46;69.88
40954;BME280;26686;50.130;8.710;2023-04-07T13:59:44;100189.13;;;13.43;69.49
40954;BME280;26686;50.130;8.710;2023-04-07T14:04:46;100197.97;;;13.43;69.71
40954;BME280;26686;50.130;8.710;2023-04-07T14:09:47;100193.50;;;13.34;69.43
40954;BME280;26686;50.130;8.710;2023-04-07T14:14:49;100207.97;;;13.02;69.40
40954;BME280;26686;50.130;8.710;2023-04-07T14:19:52;100203.88;;;12.69;71.60
40954;BME280;26686;50.130;8.710;2023-04-07T14:24:54;100208.78;;;12.54;73.10
40954;BME280;26686;50.130;8.710;2023-04-07T14:29:56;100202.50;;;13.04;72.14
40954;BME280;26686;50.130;8.710;2023-04-07T14:34:59;100195.97;;;13.65;70.21
40954;BME280;26686;50.130;8.710;2023-04-07T14:40:02;100198.44;;;13.86;69.32
40954;BME280;26686;50.130;8.710;2023-04-07T14:45:04;100193.19;;;13.94;68.67
40954;BME280;26686;50.130;8.710;2023-04-07T14:50:05;100198.16;;;13.79;68.10
40954;BME280;26686;50.130;8.710;2023-04-07T14:55:07;100195.50;;;13.79;65.71
40954;BME280;26686;50.130;8.710;2023-04-07T15:00:09;100191.84;;;13.81;66.84
40954;BME280;26686;50.130;8.710;2023-04-07T15:05:11;100198.81;;;13.54;66.22
40954;BME280;26686;50.130;8.710;2023-04-07T15:10:12;100205.13;;;13.72;65.58
40954;BME280;26686;50.130;8.710;2023-04-07T15:15:14;100213.81;;;13.74;63.93
40954;BME280;26686;50.130;8.710;2023-04-07T15:20:15;100211.63;;;13.31;64.69
40954;BME280;26686;50.130;8.710;2023-04-07T15:25:17;100215.13;;;13.31;63.71
40954;BME280;26686;50.130;8.710;2023-04-07T15:30:18;100212.47;;;13.12;65.13
40954;BME280;26686;50.130;8.710;2023-04-07T15:35:20;100210.50;;;13.23;64.53
40954;BME280;26686;50.130;8.710;2023-04-07T15:40:21;100211.09;;;13.27;62.78
40954;BME280;26686;50.130;8.710;2023-04-07T15:45:23;100211.09;;;13.37;63.23
40954;BME280;26686;50.130;8.710;2023-04-07T15:50:24;100220.22;;;13.34;62.74
40954;BME280;26686;50.130;8.710;2023-04-07T15:55:27;100223.44;;;13.28;63.21
40954;BME280;26686;50.130;8.710;2023-04-07T16:00:31;100228.50;;;13.12;63.49
40954;BME280;26686;50.130;8.710;2023-04-07T16:05:33;100231.63;;;12.97;65.42
40954;BME280;26686;50.130;8.710;2023-04-07T16:10:35;100240.06;;;12.93;66.59
40954;BME280;26686;50.130;8.710;2023-04-07T16:15:36;100235.66;;;12.82;67.30
40954;BME280;26686;50.130;8.710;2023-04-07T16:20:42;100246.75;;;12.67;69.08
40954;BME280;26686;50.130;8.710;2023-04-07T16:25:43;100244.34;;;12.64;69.44
40954;BME280;26686;50.130;8.710;2023-04-07T16:30:44;100247.03;;;12.64;68.35
40954;BME280;26686;50.130;8.710;2023-04-07T16:35:46;100252.03;;;12.48;68.14
40954;BME280;26686;50.130;8.710;2023-04-07T16:40:47;100257.88;;;12.32;67.92
40954;BME280;26686;50.130;8.710;2023-04-07T16:46:04;100263.19;;;12.22;68.11
40954;BME280;26686;50.130;8.710;2023-04-07T16:51:06;100271.28;;;12.11;68.62
40954;BME280;26686;50.130;8.710;2023-04-07T16:56:18;100274.22;;;12.08;68.86
40954;BME280;26686;50.130;8.710;2023-04-07T17:01:19;100275.03;;;12.08;68.48
40954;BME280;26686;50.130;8.710;2023-04-07T17:06:21;100270.25;;;12.02;69.29
40954;BME280;26686;50.130;8.710;2023-04-07T17:11:23;100277.69;;;11.98;68.77
40954;BME280;26686;50.130;8.710;2023-04-07T17:16:24;100288.63;;;11.95;68.85
40954;BME280;26686;50.130;8.710;2023-04-07T17:21:26;100289.63;;;11.83;68.44
40954;BME280;26686;50.130;8.710;2023-04-07T17:26:27;100288.72;;;11.73;68.99
40954;BME280;26686;50.130;8.710;2023-04-07T17:31:29;100290.47;;;11.62;68.90
40954;BME280;26686;50.130;8.710;2023-04-07T17:36:32;100294.88;;;11.52;69.30
40954;BME280;26686;50.130;8.710;2023-04-07T17:41:34;100301.69;;;11.45;69.63
40954;BME280;26686;50.130;8.710;2023-04-07T17:46:35;100314.97;;;11.35;70.10
40954;BME280;26686;50.130;8.710;2023-04-07T17:51:37;100312.19;;;11.25;70.75
40954;BME280;26686;50.130;8.710;2023-04-07T17:56:38;100332.31;;;11.18;70.67
40954;BME280;26686;50.130;8.710;2023-04-07T18:01:40;100331.63;;;11.05;71.25
40954;BME280;26686;50.130;8.710;2023-04-07T18:06:41;100349.06;;;11.09;71.20
40954;BME280;26686;50.130;8.710;2023-04-07T18:11:42;100341.81;;;11.11;71.39
40954;BME280;26686;50.130;8.710;2023-04-07T18:16:44;100346.00;;;11.13;71.75
40954;BME280;26686;50.130;8.710;2023-04-07T18:21:46;100347.72;;;11.14;72.19
40954;BME280;26686;50.130;8.710;2023-04-07T18:26:47;100346.88;;;11.14;72.43
40954;BME280;26686;50.130;8.710;2023-04-07T18:31:48;100358.38;;;11.14;72.80
40954;BME280;26686;50.130;8.710;2023-04-07T18:36:50;100370.13;;;11.12;73.67
40954;BME280;26686;50.130;8.710;2023-04-07T18:41:52;100384.19;;;11.14;73.67
40954;BME280;26686;50.130;8.710;2023-04-07T18:46:53;100389.75;;;11.11;74.20
40954;BME280;26686;50.130;8.710;2023-04-07T18:51:54;100388.66;;;11.02;74.32
40954;BME280;26686;50.130;8.710;2023-04-07T18:56:56;100394.25;;;10.99;73.89
40954;BME280;26686;50.130;8.710;2023-04-07T19:01:58;100403.31;;;10.96;74.35
40954;BME280;26686;50.130;8.710;2023-04-07T19:06:59;100400.41;;;10.88;73.57
40954;BME280;26686;50.130;8.710;2023-04-07T19:12:01;100408.50;;;10.87;72.76
40954;BME280;26686;50.130;8.710;2023-04-07T19:17:02;100412.41;;;10.83;71.96
40954;BME280;26686;50.130;8.710;2023-04-07T19:22:03;100413.38;;;10.59;72.36
40954;BME280;26686;50.130;8.710;2023-04-07T19:27:05;100417.84;;;10.58;71.87
40954;BME280;26686;50.130;8.710;2023-04-07T19:32:07;100415.91;;;10.60;72.33
40954;BME280;26686;50.130;8.710;2023-04-07T19:37:09;100425.13;;;10.68;72.24
40954;BME280;26686;50.130;8.710;2023-04-07T19:42:10;100415.78;;;10.62;71.72
40954;BME280;26686;50.130;8.710;2023-04-07T19:47:11;100426.78;;;10.69;72.06
40954;BME280;26686;50.130;8.710;2023-04-07T19:52:13;100426.78;;;10.69;72.14
40954;BME280;26686;50.130;8.710;2023-04-07T19:57:14;100440.34;;;10.66;71.97
40954;BME280;26686;50.130;8.710;2023-04-07T20:02:16;100436.72;;;10.67;71.99
40954;BME280;26686;50.130;8.710;2023-04-07T20:07:18;100435.75;;;10.68;71.99
40954;BME280;26686;50.130;8.710;2023-04-07T20:12:19;100439.97;;;10.59;72.06
40954;BME280;26686;50.130;8.710;2023-04-07T20:17:22;100448.69;;;10.61;72.37
40954;BME280;26686;50.130;8.710;2023-04-07T20:22:23;100442.28;;;10.64;72.42
40954;BME280;26686;50.130;8.710;2023-04-07T20:27:25;100458.38;;;10.62;72.28
40954;BME280;26686;50.130;8.710;2023-04-07T20:32:27;100464.53;;;10.63;72.44
40954;BME280;26686;50.130;8.710;2023-04-07T20:37:29;100454.88;;;10.61;72.20
40954;BME280;26686;50.130;8.710;2023-04-07T20:42:30;100471.56;;;10.64;72.24
40954;BME280;26686;50.130;8.710;2023-04-07T20:47:31;100474.13;;;10.65;72.52
40954;BME280;26686;50.130;8.710;2023-04-07T20:52:36;100459.09;;;10.53;72.20
40954;BME280;26686;50.130;8.710;2023-04-07T20:57:40;100481.00;;;10.56;72.66
40954;BME280;26686;50.130;8.710;2023-04-07T21:02:42;100469.84;;;10.51;72.83
40954;BME280;26686;50.130;8.710;2023-04-07T21:07:43;100473.47;;;10.39;73.48
40954;BME280;26686;50.130;8.710;2023-04-07T21:12:45;100472.84;;;10.35;73.68
40954;BME280;26686;50.130;8.710;2023-04-07T21:17:46;100467.59;;;10.22;73.80
40954;BME280;26686;50.130;8.710;2023-04-07T21:22:47;100479.66;;;10.26;74.46
40954;BME280;26686;50.130;8.710;2023-04-07T21:27:49;100479.66;;;10.26;74.35
40954;BME280;26686;50.130;8.710;2023-04-07T21:32:51;100476.41;;;10.23;74.24
40954;BME280;26686;50.130;8.710;2023-04-07T21:37:53;100466.94;;;10.19;74.59
40954;BME280;26686;50.130;8.710;2023-04-07T21:42:55;100477.47;;;10.20;73.95
40954;BME280;26686;50.130;8.710;2023-04-07T21:47:57;100486.16;;;10.11;74.60
40954;BME280;26686;50.130;8.710;2023-04-07T21:52:59;100488.09;;;10.09;74.87
40954;BME280;26686;50.130;8.710;2023-04-07T21:58:00;100489.63;;;10.00;75.10
40954;BME280;26686;50.130;8.710;2023-04-07T22:03:02;100492.38;;;9.99;74.91
40954;BME280;26686;50.130;8.710;2023-04-07T22:08:04;100495.28;;;9.96;75.60
40954;BME280;26686;50.130;8.710;2023-04-07T22:13:05;100493.56;;;9.95;75.45
40954;BME280;26686;50.130;8.710;2023-04-07T22:18:06;100493.09;;;10.01;75.13
40954;BME280;26686;50.130;8.710;2023-04-07T22:23:08;100498.72;;;10.09;75.24
40954;BME280;26686;50.130;8.710;2023-04-07T22:28:09;100500.25;;;10.00;75.21
40954;BME280;26686;50.130;8.710;2023-04-07T22:33:11;100500.03;;;10.03;75.55
40954;BME280;26686;50.130;8.710;2023-04-07T22:38:12;100512.25;;;10.06;75.23
40954;BME280;26686;50.130;8.710;2023-04-07T22:43:13;100512.13;;;10.07;75.55
40954;BME280;26686;50.130;8.710;2023-04-07T22:48:16;100519.13;;;10.08;75.57
40954;BME280;26686;50.130;8.710;2023-04-07T22:53:17;100512.84;;;10.09;75.47
40954;BME280;26686;50.130;8.710;2023-04-07T22:58:18;100512.84;;;10.09;75.46
40954;BME280;26686;50.130;8.710;2023-04-07T23:03:20;100515.97;;;10.03;75.16
40954;BME280;26686;50.130;8.710;2023-04-07T23:08:21;100513.44;;;10.02;75.71
40954;BME280;26686;50.130;8.710;2023-04-07T23:13:23;100533.19;;;10.11;74.86
40954;BME280;26686;50.130;8.710;2023-04-07T23:18:24;100522.59;;;9.98;75.77
40954;BME280;26686;50.130;8.710;2023-04-07T23:23:26;100526.53;;;9.92;75.67
40954;BME280;26686;50.130;8.710;2023-04-07T23:28:27;100536.66;;;10.00;75.58
40954;BME280;26686;50.130;8.710;2023-04-07T23:33:29;100532.16;;;10.00;74.93
40954;BME280;26686;50.130;8.710;2023-04-07T23:38:31;100537.38;;;10.02;75.24
40954;BME280;26686;50.130;8.710;2023-04-07T23:43:33;100536.19;;;10.06;74.76
40954;BME280;26686;50.130;8.710;2023-04-07T23:48:35;100536.19;;;10.06;74.23
40954;BME280;26686;50.130;8.710;2023-04-07T23:53:37;100532.44;;;10.08;74.34
40954;BME280;26686;50.130;8.710;2023-04-07T23:58:38;100534.72;;;10.02;74.43
